createdAt,value
2023-02-12T00:01:10.030Z,1.70
2023-02-12T00:03:11.977Z,1.81
2023-02-12T00:05:13.797Z,1.71
2023-02-12T00:07:15.410Z,1.54
2023-02-12T00:09:16.823Z,1.67
2023-02-12T00:11:21.791Z,1.70
2023-02-12T00:13:23.408Z,1.55
2023-02-12T00:15:24.878Z,1.67
2023-02-12T00:17:26.617Z,1.68
2023-02-12T00:19:28.050Z,1.72
2023-02-12T00:21:29.576Z,1.74
2023-02-12T00:23:31.457Z,1.78
2023-02-12T00:25:34.077Z,1.77
2023-02-12T00:27:35.609Z,1.72
2023-02-12T00:29:37.724Z,1.72
2023-02-12T00:31:39.241Z,1.67
2023-02-12T00:33:40.865Z,1.55
2023-02-12T00:35:42.506Z,1.59
2023-02-12T00:37:43.937Z,1.65
2023-02-12T00:39:45.477Z,1.66
2023-02-12T00:41:47.134Z,1.80
2023-02-12T00:43:49.443Z,1.76
2023-02-12T00:45:50.905Z,1.71
2023-02-12T00:47:52.458Z,1.76
2023-02-12T00:49:53.871Z,1.65
2023-02-12T00:51:55.282Z,1.65
2023-02-12T00:53:56.776Z,1.73
2023-02-12T00:55:58.550Z,1.70
2023-02-12T00:58:00.412Z,1.76
2023-02-12T01:00:02.022Z,1.65
2023-02-12T01:02:03.937Z,1.54
2023-02-12T01:04:05.353Z,1.44
2023-02-12T01:06:07.425Z,1.43
2023-02-12T01:08:15.477Z,1.50
2023-02-12T01:10:17.283Z,1.58
2023-02-12T01:12:18.759Z,1.45
2023-02-12T01:14:20.171Z,1.58
2023-02-12T01:16:24.074Z,1.49
2023-02-12T01:18:25.618Z,1.61
2023-02-12T01:20:27.109Z,1.81
2023-02-12T01:22:28.534Z,1.78
2023-02-12T01:24:30.000Z,1.76
2023-02-12T01:26:32.396Z,1.60
2023-02-12T01:28:34.085Z,1.71
2023-02-12T01:30:35.592Z,1.69
2023-02-12T01:32:37.059Z,1.61
2023-02-12T01:34:38.670Z,1.53
2023-02-12T01:36:40.145Z,1.47
2023-02-12T01:38:41.614Z,1.52
2023-02-12T01:40:43.035Z,1.57
2023-02-12T01:42:44.542Z,1.58
2023-02-12T01:45:13.799Z,1.63
2023-02-12T01:47:18.184Z,1.60
2023-02-12T01:49:21.913Z,1.66
2023-02-12T01:51:24.328Z,1.61
2023-02-12T01:53:31.330Z,1.43
2023-02-12T01:55:33.061Z,1.49
2023-02-12T01:57:39.066Z,1.55
2023-02-12T01:59:42.886Z,1.55
2023-02-12T02:01:44.827Z,1.50
2023-02-12T02:03:52.316Z,1.43
2023-02-12T02:05:59.002Z,1.55
2023-02-12T02:08:00.726Z,1.71
2023-02-12T02:10:02.709Z,1.50
2023-02-12T02:12:04.301Z,1.52
2023-02-12T02:14:06.155Z,1.55
2023-02-12T02:16:21.121Z,1.69
2023-02-12T02:18:37.040Z,1.72
2023-02-12T02:21:04.514Z,1.72
2023-02-12T02:23:33.309Z,1.78
2023-02-12T02:26:10.113Z,1.66
2023-02-12T02:28:28.778Z,1.46
2023-02-12T02:31:11.618Z,1.59
2023-02-12T02:33:20.898Z,1.53
2023-02-12T02:35:44.120Z,1.47
2023-02-12T02:38:00.963Z,1.50
2023-02-12T02:40:07.731Z,1.43
2023-02-12T02:42:32.927Z,1.55
2023-02-12T02:44:54.679Z,1.65
2023-02-12T02:46:57.705Z,1.71
2023-02-12T02:49:13.608Z,1.64
2023-02-12T02:51:26.528Z,1.57
2023-02-12T02:53:35.101Z,1.51
2023-02-12T02:55:40.567Z,1.64
2023-02-12T02:57:57.837Z,1.58
2023-02-12T03:00:11.823Z,1.41
2023-02-12T03:02:25.368Z,1.42
2023-02-12T03:04:39.106Z,1.36
2023-02-12T03:06:46.104Z,1.34
2023-02-12T03:08:55.299Z,1.45
2023-02-12T03:11:03.944Z,1.39
2023-02-12T03:13:17.002Z,1.32
2023-02-12T03:15:26.526Z,1.31
2023-02-12T03:17:35.848Z,1.39
2023-02-12T03:19:44.035Z,1.37
2023-02-12T03:21:55.107Z,1.51
2023-02-12T03:24:07.602Z,1.40
2023-02-12T03:26:39.381Z,1.46
2023-02-12T03:28:41.107Z,1.34
2023-02-12T03:30:49.289Z,1.29
2023-02-12T03:33:18.356Z,1.21
2023-02-12T03:35:34.635Z,1.05
2023-02-12T03:37:41.872Z,1.13
2023-02-12T03:40:01.257Z,1.18
2023-02-12T03:42:13.421Z,1.06
2023-02-12T03:44:23.848Z,1.02
2023-02-12T03:46:35.255Z,1.04
2023-02-12T03:48:43.809Z,1.01
2023-02-12T03:50:53.197Z,1.15
2023-02-12T03:52:54.652Z,1.07
2023-02-12T03:54:56.189Z,1.03
2023-02-12T03:57:12.212Z,1.03
2023-02-12T03:59:13.842Z,1.06
2023-02-12T04:01:15.684Z,0.92
2023-02-12T04:03:17.423Z,1.02
2023-02-12T04:05:27.476Z,0.94
2023-02-12T04:07:29.057Z,0.97
2023-02-12T04:09:32.362Z,1.01
2023-02-12T04:11:42.619Z,0.92
2023-02-12T04:14:10.459Z,1.00
2023-02-12T04:16:28.110Z,1.04
2023-02-12T04:18:40.701Z,0.94
2023-02-12T04:20:53.601Z,0.96
2023-02-12T04:23:01.725Z,1.10
2023-02-12T04:25:35.440Z,1.06
2023-02-12T04:28:00.655Z,1.29
2023-02-12T04:30:09.257Z,1.17
2023-02-12T04:32:19.434Z,1.16
2023-02-12T04:34:43.999Z,1.27
2023-02-12T04:36:57.573Z,1.38
2023-02-12T04:39:03.240Z,1.51
2023-02-12T04:41:07.063Z,1.47
2023-02-12T04:43:09.264Z,1.56
2023-02-12T04:45:19.162Z,1.52
2023-02-12T04:47:20.572Z,1.58
2023-02-12T04:49:23.542Z,1.62
2023-02-12T04:51:24.985Z,1.50
2023-02-12T04:53:26.610Z,1.57
2023-02-12T04:55:28.079Z,1.60
2023-02-12T04:57:29.577Z,1.57
2023-02-12T04:59:30.986Z,1.36
2023-02-12T05:01:36.931Z,1.32
2023-02-12T05:03:38.428Z,1.39
2023-02-12T05:05:39.831Z,1.44
2023-02-12T05:07:41.411Z,1.43
2023-02-12T05:09:42.917Z,1.39
2023-02-12T05:11:44.500Z,1.21
2023-02-12T05:13:49.790Z,1.23
2023-02-12T05:15:51.245Z,1.38
2023-02-12T05:17:52.672Z,1.18
2023-02-12T05:19:54.258Z,1.17
2023-02-12T05:21:55.697Z,1.26
2023-02-12T05:23:57.091Z,1.09
2023-02-12T05:26:00.196Z,0.93
2023-02-12T05:28:01.660Z,1.00
2023-02-12T05:30:03.305Z,0.94
2023-02-12T05:32:05.949Z,0.98
2023-02-12T05:34:10.925Z,0.99
2023-02-12T05:36:15.775Z,1.02
2023-02-12T05:38:17.298Z,0.93
2023-02-12T05:40:18.985Z,0.87
2023-02-12T05:42:20.549Z,0.94
2023-02-12T05:44:22.142Z,0.90
2023-02-12T05:46:23.624Z,0.82
2023-02-12T05:48:25.214Z,0.81
2023-02-12T05:50:26.847Z,0.84
2023-02-12T05:52:28.276Z,0.84
2023-02-12T05:54:29.702Z,0.77
2023-02-12T05:56:36.377Z,0.72
2023-02-12T05:58:38.206Z,0.70
2023-02-12T06:00:39.634Z,0.64
2023-02-12T06:02:41.486Z,0.44
2023-02-12T06:04:42.918Z,0.07
2023-02-12T06:06:44.397Z,-0.14
2023-02-12T06:08:49.978Z,0.04
2023-02-12T06:10:51.394Z,0.12
2023-02-12T06:12:55.857Z,0.19
2023-02-12T06:14:57.684Z,0.22
2023-02-12T06:16:59.227Z,0.21
2023-02-12T06:19:03.078Z,0.22
2023-02-12T06:21:04.895Z,0.21
2023-02-12T06:23:06.372Z,0.16
2023-02-12T06:25:07.980Z,-0.06
2023-02-12T06:27:09.613Z,0.04
2023-02-12T06:29:11.240Z,0.07
2023-02-12T06:31:25.725Z,-0.11
2023-02-12T06:33:27.457Z,-0.09
2023-02-12T06:35:28.906Z,-0.04
2023-02-12T06:37:30.340Z,-0.02
2023-02-12T06:39:32.069Z,0.01
2023-02-12T06:41:33.757Z,0.07
2023-02-12T06:43:35.222Z,0.01
2023-02-12T06:45:37.137Z,-0.14
2023-02-12T06:47:38.555Z,-0.23
2023-02-12T06:49:39.997Z,-0.26
2023-02-12T06:51:42.308Z,-0.02
2023-02-12T06:53:44.767Z,0.13
2023-02-12T06:55:46.268Z,0.09
2023-02-12T06:57:48.042Z,0.21
2023-02-12T06:59:50.081Z,0.23
2023-02-12T07:01:51.499Z,0.42
2023-02-12T07:04:01.679Z,0.34
2023-02-12T07:06:03.810Z,0.35
2023-02-12T07:08:05.214Z,0.44
2023-02-12T07:10:07.431Z,0.41
2023-02-12T07:12:08.842Z,0.35
2023-02-12T07:14:17.090Z,0.36
2023-02-12T07:16:19.139Z,0.61
2023-02-12T07:18:20.634Z,0.80
2023-02-12T07:20:22.083Z,0.83
2023-02-12T07:22:23.760Z,0.84
2023-02-12T07:24:25.198Z,1.01
2023-02-12T07:26:26.651Z,1.14
2023-02-12T07:28:28.454Z,1.30
2023-02-12T07:30:30.047Z,1.18
2023-02-12T07:32:32.940Z,1.26
2023-02-12T07:34:34.594Z,1.33
2023-02-12T07:36:36.194Z,1.60
2023-02-12T07:38:38.499Z,1.95
2023-02-12T07:40:40.300Z,2.00
2023-02-12T07:42:41.715Z,2.03
2023-02-12T07:44:43.320Z,2.15
2023-02-12T07:46:49.029Z,2.18
2023-02-12T07:48:51.334Z,2.23
2023-02-12T07:50:52.745Z,2.18
2023-02-12T07:52:54.373Z,2.17
2023-02-12T07:54:55.779Z,2.31
2023-02-12T07:56:57.258Z,2.27
2023-02-12T07:59:01.714Z,2.31
2023-02-12T08:01:16.067Z,2.54
2023-02-12T08:03:17.515Z,2.38
2023-02-12T08:05:19.445Z,2.32
2023-02-12T08:07:20.854Z,2.56
2023-02-12T08:09:27.867Z,2.59
2023-02-12T08:11:30.286Z,2.88
2023-02-12T08:13:31.936Z,2.72
2023-02-12T08:15:33.364Z,2.83
2023-02-12T08:17:35.207Z,2.67
2023-02-12T08:19:36.802Z,2.62
2023-02-12T08:21:38.285Z,2.58
2023-02-12T08:23:41.209Z,2.54
2023-02-12T08:25:42.605Z,2.73
2023-02-12T08:27:44.003Z,2.84
2023-02-12T08:29:45.796Z,2.85
2023-02-12T08:31:49.531Z,2.52
2023-02-12T08:33:52.818Z,2.82
2023-02-12T08:36:09.952Z,2.88
2023-02-12T08:38:11.367Z,2.99
2023-02-12T08:40:13.035Z,3.19
2023-02-12T08:42:14.830Z,3.14
2023-02-12T08:44:17.228Z,3.32
2023-02-12T08:46:24.686Z,3.04
2023-02-12T08:48:26.469Z,2.95
2023-02-12T08:50:27.978Z,2.92
2023-02-12T08:52:29.371Z,3.29
2023-02-12T08:54:31.320Z,3.24
2023-02-12T08:56:34.476Z,3.38
2023-02-12T08:58:36.590Z,3.76
2023-02-12T09:00:40.423Z,4.08
2023-02-12T09:02:42.172Z,4.52
2023-02-12T09:04:43.604Z,4.11
2023-02-12T09:06:46.659Z,4.24
2023-02-12T09:08:48.322Z,3.80
2023-02-12T09:10:49.782Z,4.04
2023-02-12T09:12:51.853Z,4.32
2023-02-12T09:14:53.268Z,4.54
2023-02-12T09:16:54.881Z,4.47
2023-02-12T09:18:56.870Z,3.83
2023-02-12T09:21:08.306Z,3.81
2023-02-12T09:23:11.912Z,3.69
2023-02-12T09:25:13.524Z,3.37
2023-02-12T09:27:14.947Z,3.72
2023-02-12T09:29:16.372Z,3.70
2023-02-12T09:31:21.407Z,3.75
2023-02-12T09:33:23.130Z,3.80
2023-02-12T09:35:24.689Z,3.51
2023-02-12T09:37:26.594Z,3.57
2023-02-12T09:39:28.024Z,3.54
2023-02-12T09:42:11.022Z,3.47
2023-02-12T09:44:21.633Z,3.78
2023-02-12T09:47:01.129Z,3.28
2023-02-12T09:49:32.373Z,3.32
2023-02-12T09:51:34.233Z,3.85
2023-02-12T09:53:40.391Z,3.72
2023-02-12T09:55:41.958Z,3.55
2023-02-12T09:57:44.333Z,3.82
2023-02-12T09:59:52.488Z,3.87
2023-02-12T10:01:54.120Z,4.36
2023-02-12T10:03:56.549Z,4.71
2023-02-12T10:06:04.897Z,4.39
2023-02-12T10:08:32.342Z,4.07
2023-02-12T10:10:58.541Z,4.04
2023-02-12T10:13:14.055Z,4.07
2023-02-12T10:16:03.224Z,4.07
2023-02-12T10:18:18.221Z,4.18
2023-02-12T10:20:31.617Z,4.25
2023-02-12T10:23:01.974Z,4.24
2023-02-12T10:25:16.926Z,4.35
2023-02-12T10:27:26.239Z,4.66
2023-02-12T10:29:34.147Z,4.72
2023-02-12T10:31:40.742Z,4.67
2023-02-12T10:33:48.719Z,4.31
2023-02-12T10:35:57.320Z,4.36
2023-02-12T10:38:07.053Z,4.48
2023-02-12T10:40:25.621Z,4.15
2023-02-12T10:42:43.153Z,3.56
2023-02-12T10:44:44.722Z,3.56
2023-02-12T10:46:46.223Z,3.35
2023-02-12T10:48:51.986Z,3.26
2023-02-12T10:51:08.448Z,3.50
2023-02-12T10:53:25.343Z,3.51
2023-02-12T10:55:32.832Z,3.80
2023-02-12T10:57:39.019Z,3.89
2023-02-12T10:59:45.472Z,3.83
2023-02-12T11:01:47.750Z,3.91
2023-02-12T11:03:49.284Z,3.83
2023-02-12T11:05:50.781Z,3.92
2023-02-12T11:07:52.635Z,3.53
2023-02-12T11:09:56.400Z,3.19
2023-02-12T11:11:58.317Z,3.42
2023-02-12T11:14:04.362Z,3.49
2023-02-12T11:16:06.060Z,3.44
2023-02-12T11:18:20.170Z,3.41
2023-02-12T11:20:38.648Z,3.53
2023-02-12T11:22:50.298Z,3.51
2023-02-12T11:25:01.390Z,3.38
2023-02-12T11:27:23.590Z,3.34
2023-02-12T11:29:24.992Z,3.34
2023-02-12T11:31:28.191Z,3.34
2023-02-12T11:33:35.032Z,3.46
2023-02-12T11:35:37.010Z,3.73
2023-02-12T11:37:47.102Z,3.43
2023-02-12T11:39:51.225Z,3.29
2023-02-12T11:42:03.124Z,3.44
2023-02-12T11:44:13.200Z,3.36
2023-02-12T11:46:21.670Z,3.14
2023-02-12T11:48:25.720Z,3.23
2023-02-12T11:50:30.913Z,3.29
2023-02-12T11:52:36.732Z,3.33
2023-02-12T11:54:43.318Z,3.58
2023-02-12T11:56:48.497Z,3.77
2023-02-12T11:58:51.834Z,3.90
2023-02-12T12:01:02.756Z,4.17
2023-02-12T12:03:27.345Z,3.90
2023-02-12T12:05:37.478Z,3.74
2023-02-12T12:07:45.110Z,3.88
2023-02-12T12:09:54.044Z,3.61
2023-02-12T12:12:22.420Z,3.88
2023-02-12T12:14:30.113Z,4.33
2023-02-12T12:16:42.208Z,4.17
2023-02-12T12:18:52.203Z,4.06
2023-02-12T12:21:04.683Z,4.17
2023-02-12T12:23:43.292Z,4.16
2023-02-12T12:26:04.509Z,4.26
2023-02-12T12:28:28.693Z,4.35
2023-02-12T12:31:07.402Z,3.90
2023-02-12T12:33:43.941Z,4.19
2023-02-12T12:35:59.960Z,3.97
2023-02-12T12:38:19.819Z,3.93
2023-02-12T12:40:42.675Z,3.98
2023-02-12T12:42:59.232Z,3.85
2023-02-12T12:45:21.943Z,3.96
2023-02-12T12:47:38.213Z,3.72
2023-02-12T12:50:08.171Z,3.58
2023-02-12T12:52:24.468Z,3.82
2023-02-12T12:54:36.937Z,3.88
2023-02-12T12:56:38.287Z,3.85
2023-02-12T12:59:13.932Z,3.51
2023-02-12T13:01:50.039Z,3.71
2023-02-12T13:04:21.522Z,3.77
2023-02-12T13:06:37.729Z,4.02
2023-02-12T13:09:03.966Z,3.71
2023-02-12T13:11:08.227Z,3.68
2023-02-12T13:13:29.539Z,3.83
2023-02-12T13:15:36.656Z,3.87
2023-02-12T13:17:49.171Z,3.89
2023-02-12T13:20:15.341Z,3.93
2023-02-12T13:22:19.915Z,3.85
2023-02-12T13:24:43.209Z,4.07
2023-02-12T13:26:55.102Z,3.88
2023-02-12T13:29:19.451Z,3.72
2023-02-12T13:31:38.266Z,3.69
2023-02-12T13:33:44.902Z,3.61
2023-02-12T13:35:51.669Z,3.68
2023-02-12T13:37:54.233Z,3.59
2023-02-12T13:40:01.471Z,3.47
2023-02-12T13:42:24.098Z,3.68
2023-02-12T13:44:46.713Z,3.66
2023-02-12T13:47:00.235Z,3.85
2023-02-12T13:49:37.161Z,3.82
2023-02-12T13:52:01.851Z,3.85
2023-02-12T13:54:47.044Z,3.61
2023-02-12T13:56:56.854Z,3.62
2023-02-12T13:58:58.532Z,3.67
2023-02-12T14:01:01.359Z,3.69
2023-02-12T14:03:08.958Z,3.83
2023-02-12T14:05:31.075Z,3.75
2023-02-12T14:07:45.318Z,3.36
2023-02-12T14:09:49.353Z,3.19
2023-02-12T14:11:53.628Z,3.03
2023-02-12T14:14:01.685Z,2.99
2023-02-12T14:16:29.192Z,3.00
2023-02-12T14:18:38.395Z,3.01
2023-02-12T14:20:40.590Z,3.02
2023-02-12T14:22:41.977Z,2.92
2023-02-12T14:24:50.459Z,2.98
2023-02-12T14:26:52.818Z,2.99
2023-02-12T14:28:56.176Z,3.03
2023-02-12T14:31:19.683Z,2.92
2023-02-12T14:33:24.337Z,2.85
2023-02-12T14:35:43.279Z,2.95
2023-02-12T14:37:44.884Z,2.99
2023-02-12T14:39:46.443Z,2.87
2023-02-12T14:41:50.853Z,2.85
2023-02-12T14:43:52.477Z,2.79
2023-02-12T14:45:55.888Z,2.77
2023-02-12T14:47:58.143Z,2.77
2023-02-12T14:50:23.402Z,2.76
2023-02-12T14:52:32.327Z,2.60
2023-02-12T14:54:52.777Z,2.74
2023-02-12T14:56:54.769Z,2.56
2023-02-12T14:58:58.685Z,2.73
2023-02-12T15:01:03.004Z,2.90
2023-02-12T15:03:19.351Z,2.99
2023-02-12T15:05:28.187Z,3.09
2023-02-12T15:07:37.369Z,2.82
2023-02-12T15:09:52.113Z,2.88
2023-02-12T15:12:12.314Z,2.79
2023-02-12T15:14:13.746Z,2.89
2023-02-12T15:16:29.899Z,2.99
2023-02-12T15:18:40.783Z,2.90
2023-02-12T15:20:54.701Z,2.92
2023-02-12T15:22:56.282Z,3.03
2023-02-12T15:25:16.639Z,3.02
2023-02-12T15:27:20.582Z,3.01
2023-02-12T15:29:25.955Z,2.92
2023-02-12T15:31:29.600Z,2.95
2023-02-12T15:33:32.436Z,3.03
2023-02-12T15:35:39.716Z,2.98
2023-02-12T15:37:41.267Z,3.06
2023-02-12T15:39:44.847Z,3.03
2023-02-12T15:41:46.432Z,2.94
2023-02-12T15:43:47.976Z,2.84
2023-02-12T15:45:51.865Z,2.80
2023-02-12T15:48:17.046Z,2.85
2023-02-12T15:50:18.712Z,2.68
2023-02-12T15:52:26.720Z,2.86
2023-02-12T15:54:28.820Z,2.86
2023-02-12T15:56:30.795Z,2.82
2023-02-12T15:58:59.680Z,2.81
2023-02-12T16:01:06.785Z,2.81
2023-02-12T16:03:26.125Z,2.90
2023-02-12T16:05:28.138Z,2.89
2023-02-12T16:07:35.698Z,2.86
2023-02-12T16:09:37.308Z,2.97
2023-02-12T16:11:39.751Z,3.09
2023-02-12T16:13:49.770Z,3.12
2023-02-12T16:16:17.418Z,3.11
2023-02-12T16:18:24.135Z,3.03
2023-02-12T16:20:30.139Z,3.09
2023-02-12T16:22:38.466Z,3.20
2023-02-12T16:25:00.936Z,3.47
2023-02-12T16:27:15.863Z,3.54
2023-02-12T16:29:18.302Z,3.39
2023-02-12T16:31:20.990Z,3.33
2023-02-12T16:33:34.627Z,3.20
2023-02-12T16:35:36.256Z,3.18
2023-02-12T16:37:37.645Z,3.11
2023-02-12T16:39:54.398Z,3.28
2023-02-12T16:41:56.830Z,3.23
2023-02-12T16:44:01.387Z,3.14
2023-02-12T16:46:06.264Z,3.13
2023-02-12T16:48:07.923Z,3.32
2023-02-12T16:50:15.256Z,3.48
2023-02-12T16:52:39.126Z,3.53
2023-02-12T16:54:40.662Z,3.32
2023-02-12T16:56:42.053Z,3.18
2023-02-12T16:58:45.435Z,3.23
2023-02-12T17:00:47.745Z,3.24
2023-02-12T17:02:49.537Z,3.35
2023-02-12T17:04:51.147Z,3.30
2023-02-12T17:06:52.825Z,3.18
2023-02-12T17:08:54.248Z,3.19
2023-02-12T17:10:55.740Z,3.12
2023-02-12T17:12:57.330Z,3.11
2023-02-12T17:15:02.552Z,3.20
2023-02-12T17:17:04.243Z,3.25
2023-02-12T17:19:06.363Z,3.20
2023-02-12T17:21:23.661Z,3.09
2023-02-12T17:23:25.403Z,3.10
2023-02-12T17:25:26.976Z,3.14
2023-02-12T17:27:28.392Z,3.23
2023-02-12T17:29:29.949Z,3.14
2023-02-12T17:31:33.111Z,3.10
2023-02-12T17:33:34.617Z,3.17
2023-02-12T17:35:38.660Z,3.16
2023-02-12T17:37:40.377Z,3.18
2023-02-12T17:39:41.805Z,3.18
2023-02-12T17:41:44.149Z,3.18
2023-02-12T17:43:45.809Z,3.12
2023-02-12T17:45:47.269Z,3.21
2023-02-12T17:47:48.820Z,3.30
2023-02-12T17:49:50.397Z,3.30
2023-02-12T17:51:51.807Z,3.22
2023-02-12T17:53:53.636Z,3.18
2023-02-12T17:55:55.258Z,3.26
2023-02-12T17:57:56.692Z,3.26
2023-02-12T17:59:58.796Z,3.26
2023-02-12T18:02:00.299Z,3.44
2023-02-12T18:04:01.726Z,3.41
2023-02-12T18:06:04.057Z,3.57
2023-02-12T18:08:06.695Z,3.61
2023-02-12T18:10:11.281Z,3.59
2023-02-12T18:12:13.207Z,3.49
2023-02-12T18:14:14.814Z,3.53
2023-02-12T18:16:16.253Z,3.60
2023-02-12T18:18:17.985Z,3.61
2023-02-12T18:20:19.700Z,3.65
2023-02-12T18:22:21.610Z,3.73
2023-02-12T18:24:23.136Z,3.74
2023-02-12T18:26:24.648Z,3.64
2023-02-12T18:28:26.203Z,3.78
2023-02-12T18:30:28.609Z,3.84
2023-02-12T18:32:30.387Z,3.82
2023-02-12T18:34:32.768Z,3.79
2023-02-12T18:36:34.386Z,3.74
2023-02-12T18:38:37.261Z,3.75
2023-02-12T18:40:41.836Z,3.67
2023-02-12T18:42:43.498Z,3.76
2023-02-12T18:44:45.099Z,3.77
2023-02-12T18:46:46.496Z,3.71
2023-02-12T18:48:48.845Z,3.62
2023-02-12T18:50:50.435Z,3.71
2023-02-12T18:52:51.839Z,3.82
2023-02-12T18:54:53.354Z,3.74
2023-02-12T18:56:54.973Z,3.81
2023-02-12T18:58:57.977Z,3.82
2023-02-12T19:00:59.999Z,3.75
2023-02-12T19:03:01.711Z,3.82
2023-02-12T19:05:03.199Z,3.73
2023-02-12T19:07:05.025Z,3.78
2023-02-12T19:09:06.636Z,3.75
2023-02-12T19:11:10.291Z,3.79
2023-02-12T19:13:11.867Z,3.71
2023-02-12T19:15:13.515Z,3.69
2023-02-12T19:17:14.971Z,3.70
2023-02-12T19:19:17.813Z,3.67
2023-02-12T19:21:19.305Z,3.77
2023-02-12T19:23:20.719Z,3.76
2023-02-12T19:25:22.529Z,3.70
2023-02-12T19:27:24.033Z,3.73
2023-02-12T19:29:25.508Z,3.79
2023-02-12T19:31:30.525Z,3.91
2023-02-12T19:33:32.263Z,3.86
2023-02-12T19:35:34.517Z,3.70
2023-02-12T19:37:36.119Z,3.77
2023-02-12T19:39:37.633Z,3.77
2023-02-12T19:41:39.071Z,3.76
2023-02-12T19:43:41.053Z,3.69
2023-02-12T19:45:42.545Z,3.65
2023-02-12T19:47:43.948Z,3.79
2023-02-12T19:49:45.576Z,3.75
2023-02-12T19:51:47.411Z,3.78
2023-02-12T19:53:48.933Z,3.74
2023-02-12T19:55:51.022Z,3.61
2023-02-12T19:57:52.528Z,3.63
2023-02-12T19:59:53.950Z,3.64
2023-02-12T20:01:55.546Z,3.71
2023-02-12T20:03:57.699Z,3.77
2023-02-12T20:06:01.996Z,3.75
2023-02-12T20:08:03.705Z,3.75
2023-02-12T20:10:05.778Z,3.74
2023-02-12T20:12:07.257Z,3.77
2023-02-12T20:14:11.995Z,3.88
2023-02-12T20:16:16.116Z,3.91
2023-02-12T20:18:17.559Z,3.94
2023-02-12T20:20:19.318Z,4.02
2023-02-12T20:22:22.187Z,4.06
2023-02-12T20:24:31.235Z,4.07
2023-02-12T20:26:33.535Z,4.25
2023-02-12T20:28:36.459Z,4.34
2023-02-12T20:30:42.018Z,4.41
2023-02-12T20:32:43.992Z,4.17
2023-02-12T20:34:50.834Z,4.21
2023-02-12T20:36:52.634Z,4.46
2023-02-12T20:38:55.589Z,4.20
2023-02-12T20:41:00.824Z,4.06
2023-02-12T20:43:02.244Z,4.14
2023-02-12T20:45:04.824Z,4.16
2023-02-12T20:47:06.340Z,4.07
2023-02-12T20:49:08.512Z,4.24
2023-02-12T20:51:15.922Z,4.12
2023-02-12T20:53:17.451Z,4.15
2023-02-12T20:55:18.886Z,4.28
2023-02-12T20:57:20.461Z,4.16
2023-02-12T20:59:22.075Z,4.17
2023-02-12T21:01:43.030Z,4.26
2023-02-12T21:03:45.244Z,4.30
2023-02-12T21:05:46.839Z,4.24
2023-02-12T21:07:50.276Z,4.31
2023-02-12T21:09:51.876Z,4.15
2023-02-12T21:11:53.472Z,4.13
2023-02-12T21:14:02.645Z,4.19
2023-02-12T21:16:12.428Z,4.21
2023-02-12T21:18:13.938Z,4.22
2023-02-12T21:20:15.444Z,4.13
2023-02-12T21:22:16.990Z,4.21
2023-02-12T21:24:22.021Z,4.26
2023-02-12T21:26:25.614Z,4.22
2023-02-12T21:28:27.256Z,4.32
2023-02-12T21:30:28.801Z,4.35
2023-02-12T21:32:31.844Z,4.33
2023-02-12T21:34:33.439Z,4.31
2023-02-12T21:36:37.627Z,4.28
2023-02-12T21:38:41.504Z,4.35
2023-02-12T21:40:43.016Z,4.35
2023-02-12T21:42:44.725Z,4.36
2023-02-12T21:44:46.160Z,4.31
2023-02-12T21:46:47.903Z,4.32
2023-02-12T21:48:50.347Z,4.48
2023-02-12T21:50:52.096Z,4.49
2023-02-12T21:52:53.705Z,4.37
2023-02-12T21:54:55.267Z,4.51
2023-02-12T21:56:58.006Z,4.41
2023-02-12T21:58:59.723Z,4.41
2023-02-12T22:01:13.648Z,4.34
2023-02-12T22:03:15.081Z,4.40
2023-02-12T22:05:16.764Z,4.43
2023-02-12T22:07:18.255Z,4.38
2023-02-12T22:09:22.020Z,4.42
2023-02-12T22:11:23.523Z,4.30
2023-02-12T22:13:25.024Z,4.37
2023-02-12T22:15:26.459Z,4.30
2023-02-12T22:17:27.936Z,4.34
2023-02-12T22:19:29.542Z,4.33
2023-02-12T22:21:34.390Z,4.46
2023-02-12T22:23:36.528Z,4.42
2023-02-12T22:25:38.021Z,4.40
2023-02-12T22:27:39.530Z,4.48
2023-02-12T22:29:40.952Z,4.40
2023-02-12T22:31:44.095Z,4.40
2023-02-12T22:33:46.676Z,4.36
2023-02-12T22:35:48.086Z,4.48
2023-02-12T22:37:49.514Z,4.45
2023-02-12T22:39:51.008Z,4.47
2023-02-12T22:41:52.449Z,4.47
2023-02-12T22:43:54.762Z,4.19
2023-02-12T22:45:56.682Z,4.49
2023-02-12T22:47:58.093Z,4.51
2023-02-12T22:50:00.659Z,4.49
2023-02-12T22:52:02.115Z,4.49
2023-02-12T22:54:03.693Z,4.47
2023-02-12T22:56:06.644Z,4.43
2023-02-12T22:58:08.090Z,4.39
2023-02-12T23:00:09.887Z,4.34
2023-02-12T23:02:11.414Z,4.30
2023-02-12T23:04:17.691Z,4.31
2023-02-12T23:06:23.690Z,4.32
2023-02-12T23:08:25.132Z,4.32
2023-02-12T23:10:26.675Z,4.37
2023-02-12T23:12:28.100Z,4.33
2023-02-12T23:14:29.589Z,4.28
2023-02-12T23:16:31.546Z,4.36
2023-02-12T23:18:33.474Z,4.32
2023-02-12T23:20:34.899Z,4.32
2023-02-12T23:22:36.545Z,4.33
2023-02-12T23:24:37.992Z,4.37
2023-02-12T23:26:39.483Z,4.34
2023-02-12T23:28:41.263Z,4.31
2023-02-12T23:30:43.229Z,4.31
2023-02-12T23:32:44.920Z,4.37
2023-02-12T23:34:46.536Z,4.27
2023-02-12T23:36:47.945Z,4.39
2023-02-12T23:38:49.489Z,4.40
2023-02-12T23:40:51.005Z,4.38
2023-02-12T23:42:52.430Z,4.33
2023-02-12T23:44:55.538Z,4.32
2023-02-12T23:46:58.377Z,4.30
2023-02-12T23:48:59.817Z,4.28
2023-02-12T23:51:01.374Z,4.28
2023-02-12T23:53:02.947Z,4.32
2023-02-12T23:55:04.656Z,4.35
2023-02-12T23:57:06.227Z,4.33
2023-02-12T23:59:08.039Z,4.34
